createdAt,value
2019-03-17T00:02:00.895Z,59.50
2019-03-17T00:04:32.057Z,59.28
2019-03-17T00:07:02.363Z,59.84
2019-03-17T00:09:33.129Z,60.49
2019-03-17T00:12:03.639Z,59.58
2019-03-17T00:14:34.109Z,59.60
2019-03-17T00:17:04.443Z,59.83
2019-03-17T00:19:34.656Z,59.66
2019-03-17T00:22:04.802Z,59.56
2019-03-17T00:24:34.993Z,59.82
2019-03-17T00:27:05.260Z,59.54
2019-03-17T00:29:36.419Z,59.78
2019-03-17T00:32:06.591Z,59.84
2019-03-17T00:34:44.097Z,59.73
2019-03-17T00:37:13.982Z,59.71
2019-03-17T00:39:44.326Z,59.50
2019-03-17T00:42:14.496Z,59.73
2019-03-17T00:44:44.835Z,60.03
2019-03-17T00:47:16.578Z,59.44
2019-03-17T00:49:46.930Z,60.03
2019-03-17T00:52:17.326Z,59.57
2019-03-17T00:54:48.043Z,59.58
2019-03-17T00:57:18.545Z,59.64
2019-03-17T00:59:48.921Z,59.53
2019-03-17T01:02:21.364Z,59.30
2019-03-17T01:04:56.130Z,59.65
2019-03-17T01:07:26.309Z,59.52
2019-03-17T01:09:56.843Z,59.64
2019-03-17T01:12:28.955Z,60.15
2019-03-17T01:14:59.634Z,60.35
2019-03-17T01:17:30.449Z,59.99
2019-03-17T01:20:01.508Z,59.63
2019-03-17T01:22:31.715Z,59.71
2019-03-17T01:25:02.385Z,59.78
2019-03-17T01:27:33.147Z,59.88
2019-03-17T01:30:03.766Z,59.79
2019-03-17T01:32:36.892Z,60.40
2019-03-17T01:35:09.618Z,60.07
2019-03-17T01:37:39.278Z,59.86
2019-03-17T01:40:09.735Z,60.09
2019-03-17T01:42:40.096Z,60.16
2019-03-17T01:45:10.858Z,60.13
2019-03-17T01:47:41.407Z,60.49
2019-03-17T01:50:14.461Z,60.45
2019-03-17T01:52:44.605Z,60.03
2019-03-17T01:55:18.237Z,60.30
2019-03-17T01:57:48.397Z,60.42
2019-03-17T02:00:18.586Z,60.00
2019-03-17T02:02:48.843Z,60.29
2019-03-17T02:05:22.318Z,60.23
2019-03-17T02:07:53.322Z,60.30
2019-03-17T02:10:23.567Z,60.09
2019-03-17T02:12:53.697Z,60.19
2019-03-17T02:15:23.891Z,60.27
2019-03-17T02:17:54.133Z,60.43
2019-03-17T02:20:24.569Z,60.26
2019-03-17T02:22:57.041Z,60.32
2019-03-17T02:25:27.230Z,60.24
2019-03-17T02:28:01.171Z,60.15
2019-03-17T02:30:31.462Z,60.19
2019-03-17T02:33:04.589Z,60.49
2019-03-17T02:35:39.469Z,60.64
2019-03-17T02:38:07.161Z,60.94
2019-03-17T02:40:38.307Z,61.03
2019-03-17T02:43:09.291Z,61.47
2019-03-17T02:45:41.112Z,61.22
2019-03-17T02:48:11.341Z,61.16
2019-03-17T02:50:41.564Z,61.34
2019-03-17T02:53:11.713Z,61.73
2019-03-17T02:55:42.003Z,61.65
2019-03-17T02:58:12.244Z,61.58
2019-03-17T03:00:42.423Z,61.96
2019-03-17T03:03:12.591Z,62.47
2019-03-17T03:05:54.740Z,62.36
2019-03-17T03:08:22.388Z,62.74
2019-03-17T03:10:52.666Z,62.61
2019-03-17T03:13:24.672Z,62.58
2019-03-17T03:15:55.343Z,62.92
2019-03-17T03:18:25.424Z,62.58
2019-03-17T03:20:55.798Z,62.87
2019-03-17T03:23:25.948Z,62.87
2019-03-17T03:25:56.123Z,62.84
2019-03-17T03:28:26.742Z,63.04
2019-03-17T03:30:57.085Z,62.78
2019-03-17T03:33:27.269Z,62.48
2019-03-17T03:36:10.159Z,62.45
2019-03-17T03:38:29.168Z,62.10
2019-03-17T03:40:59.418Z,61.78
2019-03-17T03:43:29.698Z,62.04
2019-03-17T03:46:00.658Z,61.52
2019-03-17T03:48:32.419Z,61.53
2019-03-17T03:51:02.574Z,61.65
2019-03-17T03:53:32.760Z,61.06
2019-03-17T03:56:03.000Z,60.96
2019-03-17T03:58:33.173Z,61.06
2019-03-17T04:01:03.438Z,60.99
2019-03-17T04:03:34.674Z,60.66
2019-03-17T04:06:04.966Z,60.82
2019-03-17T04:08:35.078Z,60.85
2019-03-17T04:11:05.187Z,60.40
2019-03-17T04:13:35.334Z,60.34
2019-03-17T04:16:05.541Z,60.33
2019-03-17T04:18:35.661Z,60.48
2019-03-17T04:21:08.010Z,60.32
2019-03-17T04:23:38.509Z,60.19
2019-03-17T04:26:08.631Z,60.31
2019-03-17T04:28:38.784Z,60.34
2019-03-17T04:31:08.994Z,60.49
2019-03-17T04:33:39.172Z,60.67
2019-03-17T04:36:09.275Z,60.83
2019-03-17T04:38:39.483Z,60.34
2019-03-17T04:41:10.977Z,60.50
2019-03-17T04:43:41.161Z,60.28
2019-03-17T04:46:11.271Z,60.53
2019-03-17T04:48:44.544Z,60.64
2019-03-17T04:51:14.673Z,60.74
2019-03-17T04:53:44.837Z,60.82
2019-03-17T04:56:15.086Z,61.03
2019-03-17T04:58:46.411Z,60.94
2019-03-17T05:01:16.553Z,60.72
2019-03-17T05:03:46.814Z,60.68
2019-03-17T05:06:18.138Z,60.69
2019-03-17T05:08:48.300Z,60.45
2019-03-17T05:11:18.399Z,60.45
2019-03-17T05:13:48.540Z,60.16
2019-03-17T05:16:18.655Z,60.19
2019-03-17T05:18:48.833Z,60.52
2019-03-17T05:21:19.667Z,60.23
2019-03-17T05:23:51.136Z,60.11
2019-03-17T05:26:21.341Z,60.08
2019-03-17T05:28:52.002Z,59.82
2019-03-17T05:31:22.200Z,60.01
2019-03-17T05:33:52.368Z,60.11
2019-03-17T05:36:22.664Z,59.89
2019-03-17T05:38:52.909Z,59.60
2019-03-17T05:41:24.942Z,59.54
2019-03-17T05:43:55.224Z,59.64
2019-03-17T05:46:25.485Z,59.95
2019-03-17T05:48:55.708Z,59.73
2019-03-17T05:51:28.389Z,59.72
2019-03-17T05:53:58.814Z,59.66
2019-03-17T05:56:33.348Z,59.57
2019-03-17T05:59:05.271Z,59.63
2019-03-17T06:01:35.492Z,59.38
2019-03-17T06:04:07.317Z,59.83
2019-03-17T06:06:40.251Z,59.73
2019-03-17T06:09:10.641Z,59.78
2019-03-17T06:11:41.453Z,59.75
2019-03-17T06:14:11.749Z,60.03
2019-03-17T06:16:43.099Z,60.48
2019-03-17T06:19:14.834Z,60.77
2019-03-17T06:21:45.526Z,60.84
2019-03-17T06:24:15.955Z,60.85
2019-03-17T06:26:46.955Z,61.30
2019-03-17T06:29:18.841Z,61.53
2019-03-17T06:31:52.986Z,61.37
2019-03-17T06:34:24.480Z,61.53
2019-03-17T06:36:54.830Z,61.40
2019-03-17T06:39:25.161Z,61.33
2019-03-17T06:41:55.329Z,61.60
2019-03-17T06:44:25.628Z,62.02
2019-03-17T06:46:55.855Z,62.18
2019-03-17T06:49:26.135Z,62.27
2019-03-17T06:51:56.744Z,62.32
2019-03-17T06:54:28.661Z,62.61
2019-03-17T06:56:59.194Z,62.59
2019-03-17T06:59:29.377Z,62.45
2019-03-17T07:02:03.663Z,62.56
2019-03-17T07:04:34.087Z,62.69
2019-03-17T07:07:04.320Z,62.46
2019-03-17T07:09:34.540Z,62.55
2019-03-17T07:12:05.124Z,62.22
2019-03-17T07:14:48.192Z,62.59
2019-03-17T07:17:20.782Z,62.45
2019-03-17T07:19:52.331Z,62.10
2019-03-17T07:22:25.598Z,63.09
2019-03-17T07:24:55.885Z,62.53
2019-03-17T07:27:29.217Z,62.54
2019-03-17T07:29:59.451Z,62.83
2019-03-17T07:32:29.658Z,63.06
2019-03-17T07:34:59.908Z,64.33
2019-03-17T07:37:32.588Z,65.02
2019-03-17T07:40:02.814Z,65.98
2019-03-17T07:42:39.895Z,66.93
2019-03-17T07:45:25.514Z,67.64
2019-03-17T07:48:00.973Z,67.58
2019-03-17T07:50:37.095Z,67.35
2019-03-17T07:53:07.552Z,67.08
2019-03-17T07:55:39.074Z,67.07
2019-03-17T07:58:12.388Z,67.47
2019-03-17T08:00:44.736Z,66.65
2019-03-17T08:03:17.649Z,66.35
2019-03-17T08:05:48.111Z,66.45
2019-03-17T08:08:20.182Z,66.78
2019-03-17T08:10:51.657Z,66.41
2019-03-17T08:13:22.160Z,65.90
2019-03-17T08:15:54.566Z,66.08
2019-03-17T08:18:26.950Z,66.80
2019-03-17T08:20:57.424Z,66.30
2019-03-17T08:23:31.010Z,66.80
2019-03-17T08:26:01.895Z,66.54
2019-03-17T08:28:32.198Z,66.59
2019-03-17T08:31:03.219Z,66.61
2019-03-17T08:33:33.603Z,67.12
2019-03-17T08:36:04.439Z,66.84
2019-03-17T08:38:38.278Z,66.79
2019-03-17T08:41:12.542Z,66.92
2019-03-17T08:44:02.263Z,66.27
2019-03-17T08:46:33.021Z,66.64
2019-03-17T08:49:06.891Z,65.44
2019-03-17T08:51:42.832Z,65.78
2019-03-17T08:54:16.067Z,65.13
2019-03-17T08:56:46.481Z,65.29
2019-03-17T08:59:16.749Z,65.85
2019-03-17T09:01:52.547Z,66.54
2019-03-17T09:04:26.379Z,67.28
2019-03-17T09:06:59.143Z,69.51
2019-03-17T09:09:30.401Z,74.36
2019-03-17T09:12:00.737Z,77.10
2019-03-17T09:14:31.338Z,78.16
2019-03-17T09:17:14.269Z,79.71
2019-03-17T09:19:37.871Z,80.00
2019-03-17T09:22:08.155Z,80.11
2019-03-17T09:24:38.571Z,79.17
2019-03-17T09:27:08.813Z,77.41
2019-03-17T09:29:40.141Z,75.68
2019-03-17T09:32:10.645Z,76.71
2019-03-17T09:34:46.801Z,77.08
2019-03-17T09:37:17.211Z,77.72
2019-03-17T09:39:47.379Z,76.91
2019-03-17T09:42:25.473Z,77.38
2019-03-17T09:44:55.770Z,77.25
2019-03-17T09:47:26.365Z,75.66
2019-03-17T09:50:02.159Z,75.70
2019-03-17T09:52:32.357Z,75.91
2019-03-17T09:55:02.833Z,75.48
2019-03-17T09:57:33.642Z,74.97
2019-03-17T10:00:07.290Z,74.63
2019-03-17T10:02:37.407Z,74.60
2019-03-17T10:05:13.165Z,72.11
2019-03-17T10:07:43.505Z,71.22
2019-03-17T10:10:14.163Z,71.67
2019-03-17T10:12:44.631Z,73.34
2019-03-17T10:15:17.246Z,70.17
2019-03-17T10:17:47.643Z,70.01
2019-03-17T10:20:22.210Z,69.39
2019-03-17T10:22:52.535Z,68.88
2019-03-17T10:25:22.993Z,67.20
2019-03-17T10:27:56.007Z,68.06
2019-03-17T10:30:32.209Z,68.56
2019-03-17T10:33:04.888Z,68.26
2019-03-17T10:35:40.839Z,66.55
2019-03-17T10:38:13.185Z,67.78
2019-03-17T10:40:46.089Z,66.72
2019-03-17T10:43:16.346Z,67.23
2019-03-17T10:45:46.760Z,66.58
2019-03-17T10:48:17.158Z,66.39
2019-03-17T10:50:50.049Z,65.46
2019-03-17T10:53:22.843Z,64.61
2019-03-17T10:55:54.105Z,62.17
2019-03-17T10:58:24.484Z,61.56
2019-03-17T11:00:55.504Z,60.62
2019-03-17T11:03:26.838Z,60.03
2019-03-17T11:05:58.061Z,59.62
2019-03-17T11:08:32.896Z,59.12
2019-03-17T11:11:05.215Z,60.00
2019-03-17T11:13:36.212Z,60.00
2019-03-17T11:16:07.118Z,60.29
2019-03-17T11:18:37.651Z,59.80
2019-03-17T11:21:13.702Z,59.92
2019-03-17T11:23:44.062Z,60.03
2019-03-17T11:26:17.720Z,59.19
2019-03-17T11:28:48.363Z,57.98
2019-03-17T11:31:18.797Z,57.52
2019-03-17T11:33:49.894Z,57.14
2019-03-17T11:36:20.260Z,57.76
2019-03-17T11:38:50.524Z,58.30
2019-03-17T11:41:20.692Z,57.44
2019-03-17T11:43:52.105Z,57.66
2019-03-17T11:46:23.210Z,56.44
2019-03-17T11:48:55.296Z,55.38
2019-03-17T11:51:25.474Z,55.08
2019-03-17T11:54:01.642Z,55.83
2019-03-17T11:56:31.731Z,54.26
2019-03-17T11:59:03.749Z,54.02
2019-03-17T12:01:34.178Z,52.57
2019-03-17T12:04:06.261Z,52.88
2019-03-17T12:06:41.792Z,54.07
2019-03-17T12:09:11.908Z,53.02
2019-03-17T12:11:42.030Z,51.87
2019-03-17T12:14:12.115Z,52.37
2019-03-17T12:16:43.309Z,52.84
2019-03-17T12:19:13.406Z,53.45
2019-03-17T12:21:48.704Z,53.76
2019-03-17T12:24:18.888Z,54.61
2019-03-17T12:26:49.092Z,54.61
2019-03-17T12:29:19.208Z,54.32
2019-03-17T12:31:49.436Z,54.24
2019-03-17T12:34:28.149Z,53.80
2019-03-17T12:36:51.762Z,53.93
2019-03-17T12:39:23.034Z,54.59
2019-03-17T12:41:53.158Z,54.39
2019-03-17T12:44:23.328Z,53.61
2019-03-17T12:46:53.464Z,53.23
2019-03-17T12:49:23.708Z,52.87
2019-03-17T12:51:53.794Z,52.34
2019-03-17T12:54:23.939Z,52.90
2019-03-17T12:56:54.062Z,53.65
2019-03-17T12:59:24.283Z,54.54
2019-03-17T13:01:54.385Z,54.38
2019-03-17T13:04:24.710Z,53.91
2019-03-17T13:06:59.681Z,54.28
2019-03-17T13:09:29.914Z,54.98
2019-03-17T13:12:00.122Z,59.95
2019-03-17T13:14:30.286Z,64.29
2019-03-17T13:17:00.961Z,66.07
2019-03-17T13:19:31.737Z,66.84
2019-03-17T13:22:03.952Z,66.01
2019-03-17T13:24:34.263Z,66.04
2019-03-17T13:27:04.448Z,65.32
2019-03-17T13:29:34.705Z,63.68
2019-03-17T13:32:05.062Z,63.15
2019-03-17T13:34:38.418Z,62.88
2019-03-17T13:37:08.618Z,62.99
2019-03-17T13:39:40.071Z,62.73
2019-03-17T13:42:10.351Z,62.55
2019-03-17T13:44:40.545Z,62.30
2019-03-17T13:47:10.725Z,63.31
2019-03-17T13:49:44.259Z,63.70
2019-03-17T13:52:14.365Z,63.70
2019-03-17T13:54:44.513Z,63.52
2019-03-17T13:57:17.119Z,62.96
2019-03-17T13:59:48.337Z,63.05
2019-03-17T14:02:23.059Z,63.63
2019-03-17T14:04:56.265Z,62.11
2019-03-17T14:07:26.375Z,61.56
2019-03-17T14:09:59.539Z,62.04
2019-03-17T14:12:30.853Z,61.27
2019-03-17T14:15:02.492Z,61.75
2019-03-17T14:17:32.828Z,63.02
2019-03-17T14:20:03.101Z,66.18
2019-03-17T14:22:35.465Z,65.53
2019-03-17T14:25:10.711Z,68.69
2019-03-17T14:27:43.829Z,72.94
2019-03-17T14:30:15.295Z,74.69
2019-03-17T14:32:49.634Z,75.41
2019-03-17T14:35:21.584Z,76.07
2019-03-17T14:37:51.801Z,73.09
2019-03-17T14:40:21.947Z,73.18
2019-03-17T14:42:55.103Z,71.85
2019-03-17T14:45:23.991Z,72.77
2019-03-17T14:47:54.069Z,71.87
2019-03-17T14:50:24.184Z,71.14
2019-03-17T14:52:57.411Z,71.61
2019-03-17T14:55:27.537Z,71.59
2019-03-17T14:57:57.746Z,72.19
2019-03-17T15:00:27.836Z,71.10
2019-03-17T15:03:01.192Z,70.43
2019-03-17T15:05:31.214Z,70.47
2019-03-17T15:08:01.477Z,69.70
2019-03-17T15:10:31.626Z,71.46
2019-03-17T15:13:01.716Z,71.14
2019-03-17T15:15:31.839Z,71.27
2019-03-17T15:18:02.009Z,69.69
2019-03-17T15:20:32.168Z,69.67
2019-03-17T15:23:05.528Z,67.58
2019-03-17T15:25:35.966Z,68.95
2019-03-17T15:28:06.289Z,66.90
2019-03-17T15:30:37.179Z,68.22
2019-03-17T15:33:09.189Z,67.59
2019-03-17T15:35:41.238Z,67.36
2019-03-17T15:38:14.252Z,66.64
2019-03-17T15:40:44.383Z,65.87
2019-03-17T15:43:14.497Z,65.93
2019-03-17T15:45:44.614Z,66.15
2019-03-17T15:48:17.250Z,65.34
2019-03-17T15:50:47.356Z,66.10
2019-03-17T15:53:17.450Z,64.59
2019-03-17T15:55:47.667Z,63.98
2019-03-17T15:58:19.010Z,63.02
2019-03-17T16:00:49.209Z,64.30
2019-03-17T16:03:19.320Z,64.75
2019-03-17T16:05:52.744Z,65.24
2019-03-17T16:08:24.076Z,64.53
2019-03-17T16:10:54.224Z,64.63
2019-03-17T16:13:25.862Z,64.81
2019-03-17T16:15:56.442Z,64.01
2019-03-17T16:18:27.442Z,63.40
2019-03-17T16:20:57.570Z,62.74
2019-03-17T16:23:29.893Z,61.83
2019-03-17T16:26:02.090Z,61.49
2019-03-17T16:28:35.129Z,61.74
2019-03-17T16:31:05.401Z,61.28
2019-03-17T16:33:35.721Z,61.20
2019-03-17T16:36:05.857Z,60.99
2019-03-17T16:38:36.312Z,59.66
2019-03-17T16:41:06.595Z,60.39
2019-03-17T16:43:36.734Z,59.28
2019-03-17T16:46:08.665Z,58.64
2019-03-17T16:48:41.371Z,58.26
2019-03-17T16:51:12.208Z,58.16
2019-03-17T16:53:45.868Z,58.09
2019-03-17T16:56:15.981Z,58.69
2019-03-17T16:58:46.412Z,60.10
2019-03-17T17:01:16.572Z,60.80
2019-03-17T17:03:46.691Z,61.37
2019-03-17T17:06:16.877Z,62.29
2019-03-17T17:08:49.391Z,62.30
2019-03-17T17:11:20.001Z,63.37
2019-03-17T17:13:51.956Z,63.32
2019-03-17T17:16:22.478Z,63.94
2019-03-17T17:18:54.657Z,64.02
2019-03-17T17:21:24.786Z,64.44
2019-03-17T17:23:58.319Z,64.90
2019-03-17T17:26:37.334Z,65.05
2019-03-17T17:29:03.797Z,65.94
2019-03-17T17:31:37.104Z,66.00
2019-03-17T17:34:07.220Z,66.64
2019-03-17T17:36:38.867Z,66.95
2019-03-17T17:45:02.151Z,67.16
2019-03-17T17:47:34.985Z,67.29
2019-03-17T17:50:08.433Z,66.97
2019-03-17T17:52:40.465Z,67.00
2019-03-17T17:55:11.164Z,67.48
2019-03-17T17:57:44.957Z,67.23
2019-03-17T18:00:21.239Z,67.37
2019-03-17T18:03:06.353Z,67.91
2019-03-17T18:05:40.293Z,67.92
2019-03-17T18:08:14.647Z,68.05
2019-03-17T18:10:45.681Z,68.31
2019-03-17T18:13:21.152Z,68.61
2019-03-17T18:15:54.752Z,68.63
2019-03-17T18:18:25.889Z,68.61
2019-03-17T18:21:14.319Z,68.93
2019-03-17T18:23:47.985Z,68.03
2019-03-17T18:26:18.863Z,67.60
2019-03-17T18:28:49.429Z,67.94
2019-03-17T18:31:19.729Z,67.56
2019-03-17T18:33:49.850Z,67.16
2019-03-17T18:36:21.730Z,66.85
2019-03-17T18:38:52.157Z,66.24
2019-03-17T18:41:23.736Z,65.99
2019-03-17T18:43:55.075Z,65.42
2019-03-17T18:46:25.402Z,65.47
2019-03-17T18:48:56.048Z,65.25
2019-03-17T18:51:30.771Z,65.01
2019-03-17T18:54:02.172Z,64.65
2019-03-17T18:56:33.719Z,64.63
2019-03-17T18:59:04.940Z,64.44
2019-03-17T19:01:44.319Z,64.40
2019-03-17T19:04:32.146Z,64.74
2019-03-17T19:07:04.762Z,65.01
2019-03-17T19:09:36.433Z,64.55
2019-03-17T19:12:07.272Z,64.58
2019-03-17T19:14:39.442Z,64.70
2019-03-17T19:17:09.678Z,65.23
2019-03-17T19:19:54.615Z,65.19
2019-03-17T19:22:27.977Z,65.40
2019-03-17T19:24:58.443Z,65.99
2019-03-17T19:27:29.148Z,66.46
2019-03-17T19:30:22.642Z,65.95
2019-03-17T19:32:53.236Z,66.15
2019-03-17T19:35:26.583Z,66.13
2019-03-17T19:37:56.812Z,66.12
2019-03-17T19:40:29.814Z,66.09
2019-03-17T19:43:00.478Z,66.08
2019-03-17T19:45:31.895Z,66.04
2019-03-17T19:48:02.566Z,65.67
2019-03-17T19:50:33.738Z,65.65
2019-03-17T19:53:04.743Z,65.19
2019-03-17T19:55:35.162Z,65.41
2019-03-17T19:58:17.073Z,65.35
2019-03-17T20:00:48.138Z,65.50
2019-03-17T20:03:18.625Z,65.55
2019-03-17T20:05:57.785Z,65.64
2019-03-17T20:08:24.558Z,65.79
2019-03-17T20:10:55.008Z,65.58
2019-03-17T20:13:25.365Z,65.52
2019-03-17T20:15:55.748Z,65.56
2019-03-17T20:18:25.982Z,65.73
2019-03-17T20:20:56.699Z,65.87
2019-03-17T20:23:35.169Z,65.86
2019-03-17T20:26:05.534Z,65.99
2019-03-17T20:28:38.213Z,66.21
2019-03-17T20:31:11.383Z,65.91
2019-03-17T20:33:46.154Z,66.01
2019-03-17T20:36:16.441Z,66.25
2019-03-17T20:38:47.752Z,66.40
2019-03-17T20:41:19.005Z,66.54
2019-03-17T20:43:51.441Z,66.28
2019-03-17T20:46:23.795Z,66.07
2019-03-17T20:49:02.754Z,66.87
2019-03-17T20:51:40.928Z,65.96
2019-03-17T20:54:38.093Z,65.78
2019-03-17T20:57:09.952Z,65.37
2019-03-17T20:59:40.189Z,64.78
2019-03-17T21:02:10.458Z,64.91
2019-03-17T21:04:44.200Z,64.94
2019-03-17T21:07:20.374Z,64.92
2019-03-17T21:09:50.711Z,65.30
2019-03-17T21:12:24.823Z,65.24
2019-03-17T21:15:05.838Z,64.87
2019-03-17T21:17:49.549Z,64.74
2019-03-17T21:20:22.973Z,64.65
2019-03-17T21:22:56.915Z,64.60
2019-03-17T21:25:27.264Z,64.63
2019-03-17T21:28:00.549Z,64.00
2019-03-17T21:30:31.182Z,64.40
2019-03-17T21:33:03.205Z,63.72
2019-03-17T21:35:35.166Z,62.83
2019-03-17T21:38:05.418Z,62.78
2019-03-17T21:40:35.812Z,63.02
2019-03-17T21:43:06.009Z,62.85
2019-03-17T21:45:36.469Z,63.08
2019-03-17T21:48:06.605Z,62.98
2019-03-17T21:50:40.160Z,63.15
2019-03-17T21:53:10.513Z,63.57
2019-03-17T21:55:41.223Z,63.66
2019-03-17T21:58:11.521Z,63.67
2019-03-17T22:00:41.729Z,63.63
2019-03-17T22:03:18.665Z,63.83
2019-03-17T22:05:48.861Z,63.78
2019-03-17T22:08:19.451Z,63.65
2019-03-17T22:10:49.742Z,63.66
2019-03-17T22:13:20.049Z,63.83
2019-03-17T22:15:50.260Z,63.74
2019-03-17T22:18:20.505Z,63.62
2019-03-17T22:20:51.045Z,63.83
2019-03-17T22:23:24.220Z,63.76
2019-03-17T22:25:54.578Z,63.49
2019-03-17T22:28:24.785Z,63.56
2019-03-17T22:30:54.995Z,63.66
2019-03-17T22:33:25.249Z,63.85
2019-03-17T22:35:56.837Z,64.08
2019-03-17T22:38:31.214Z,64.22
2019-03-17T22:41:01.924Z,64.37
2019-03-17T22:43:32.367Z,65.33
2019-03-17T22:46:02.992Z,65.12
2019-03-17T22:48:33.123Z,65.18
2019-03-17T22:51:03.273Z,65.32
2019-03-17T22:53:33.467Z,65.30
2019-03-17T22:56:03.639Z,65.59
2019-03-17T22:58:33.797Z,66.12
2019-03-17T23:01:04.062Z,66.48
2019-03-17T23:03:36.797Z,66.52
2019-03-17T23:06:07.161Z,66.85
2019-03-17T23:08:37.514Z,67.38
2019-03-17T23:11:07.894Z,67.99
2019-03-17T23:13:38.052Z,68.12
2019-03-17T23:16:08.399Z,68.05
2019-03-17T23:18:38.551Z,68.02
2019-03-17T23:21:08.947Z,68.51
2019-03-17T23:23:39.583Z,68.00
2019-03-17T23:26:09.961Z,68.08
2019-03-17T23:28:40.202Z,68.40
2019-03-17T23:31:10.903Z,68.17
2019-03-17T23:33:41.136Z,68.44
2019-03-17T23:36:13.501Z,67.98
2019-03-17T23:38:43.667Z,67.71
2019-03-17T23:41:13.900Z,68.04
2019-03-17T23:43:47.955Z,68.09
2019-03-17T23:46:18.836Z,68.17
2019-03-17T23:48:52.084Z,67.99
2019-03-17T23:51:22.253Z,68.08
2019-03-17T23:53:52.504Z,68.15
2019-03-17T23:56:25.721Z,68.32
2019-03-17T23:58:57.562Z,68.55
